createdAt,value
2022-11-02T00:00:10.341Z,23.30
2022-11-02T00:02:41.260Z,23.30
2022-11-02T00:05:14.925Z,23.20
2022-11-02T00:07:46.371Z,23.20
2022-11-02T00:10:17.626Z,23.30
2022-11-02T00:12:48.806Z,23.30
2022-11-02T00:15:25.289Z,23.30
2022-11-02T00:17:58.516Z,23.30
2022-11-02T00:20:29.655Z,23.40
2022-11-02T00:23:03.382Z,23.40
2022-11-02T00:25:34.562Z,23.40
2022-11-02T00:28:05.364Z,23.40
2022-11-02T00:30:36.187Z,23.50
2022-11-02T00:33:07.678Z,23.60
2022-11-02T00:35:39.436Z,23.70
2022-11-02T00:38:10.435Z,23.70
2022-11-02T00:40:41.239Z,23.70
2022-11-02T00:43:12.206Z,23.80
2022-11-02T00:45:43.158Z,23.80
2022-11-02T00:48:13.923Z,23.90
2022-11-02T00:50:45.077Z,23.90
2022-11-02T00:53:36.527Z,24.00
2022-11-02T00:56:28.482Z,24.00
2022-11-02T00:59:03.007Z,24.10
2022-11-02T01:01:34.208Z,24.10
2022-11-02T01:04:05.294Z,24.10
2022-11-02T01:06:37.380Z,24.10
2022-11-02T01:09:08.449Z,24.20
2022-11-02T01:11:41.356Z,24.30
2022-11-02T01:14:13.378Z,24.30
2022-11-02T01:19:16.990Z,24.20
2022-11-02T01:21:49.345Z,24.30
2022-11-02T01:24:20.110Z,24.20
2022-11-02T01:26:53.005Z,24.40
2022-11-02T01:29:23.853Z,24.40
2022-11-02T01:32:01.327Z,24.40
2022-11-02T01:34:30.944Z,24.40
2022-11-02T01:37:08.095Z,24.50
2022-11-02T01:39:38.898Z,24.50
2022-11-02T01:42:30.346Z,24.60
2022-11-02T01:45:01.153Z,24.70
2022-11-02T01:47:38.429Z,24.70
2022-11-02T01:50:25.298Z,24.80
2022-11-02T01:59:00.724Z,25.00
2022-11-02T02:01:31.997Z,25.00
2022-11-02T02:04:03.729Z,25.10
2022-11-02T02:06:35.388Z,25.10
2022-11-02T02:09:08.318Z,25.20
2022-11-02T02:11:41.933Z,25.20
2022-11-02T02:14:18.272Z,25.20
2022-11-02T02:17:19.552Z,25.30
2022-11-02T02:20:04.709Z,25.30
2022-11-02T02:22:47.034Z,25.30
2022-11-02T02:25:29.101Z,25.40
2022-11-02T02:28:22.133Z,25.50
2022-11-02T02:31:10.612Z,25.50
2022-11-02T02:34:08.916Z,25.70
2022-11-02T02:36:53.328Z,25.80
2022-11-02T02:39:32.438Z,25.90
2022-11-02T02:42:11.725Z,25.90
2022-11-02T02:44:48.580Z,26.00
2022-11-02T02:47:33.615Z,26.10
2022-11-02T02:50:31.492Z,26.10
2022-11-02T02:53:13.207Z,26.20
2022-11-02T02:55:47.845Z,26.20
2022-11-02T02:58:30.231Z,26.20
2022-11-02T03:01:05.410Z,26.20
2022-11-02T03:03:37.157Z,26.30
2022-11-02T03:06:13.411Z,26.40
2022-11-02T03:08:47.218Z,26.50
2022-11-02T03:11:24.723Z,26.60
2022-11-02T03:14:16.032Z,26.70
2022-11-02T03:17:15.561Z,26.80
2022-11-02T03:20:03.793Z,27.00
2022-11-02T03:22:37.162Z,27.10
2022-11-02T03:25:22.595Z,27.20
2022-11-02T03:28:18.890Z,27.20
2022-11-02T03:30:51.166Z,27.30
2022-11-02T03:33:33.700Z,27.40
2022-11-02T03:36:16.032Z,27.50
2022-11-02T03:38:55.401Z,27.70
2022-11-02T03:41:28.363Z,27.80
2022-11-02T03:44:10.594Z,27.90
2022-11-02T03:46:46.240Z,28.00
2022-11-02T03:49:19.566Z,28.10
2022-11-02T03:51:52.110Z,28.20
2022-11-02T03:54:44.728Z,28.30
2022-11-02T03:57:18.072Z,28.30
2022-11-02T03:59:49.046Z,28.40
2022-11-02T04:02:21.174Z,28.50
2022-11-02T04:04:54.443Z,28.60
2022-11-02T04:07:30.631Z,28.60
2022-11-02T04:15:25.132Z,29.00
2022-11-02T04:18:13.529Z,28.90
2022-11-02T04:20:44.464Z,29.00
2022-11-02T04:23:32.591Z,29.10
2022-11-02T04:26:03.572Z,29.10
2022-11-02T04:28:39.063Z,29.10
2022-11-02T04:31:09.884Z,29.20
2022-11-02T04:33:41.681Z,29.30
2022-11-02T04:36:12.584Z,29.40
2022-11-02T04:38:43.405Z,29.40
2022-11-02T04:41:33.043Z,29.50
2022-11-02T04:44:04.367Z,29.60
2022-11-02T04:46:38.206Z,29.70
2022-11-02T04:49:09.613Z,29.70
2022-11-02T04:51:47.136Z,29.80
2022-11-02T04:54:14.459Z,29.90
2022-11-02T04:56:45.267Z,30.00
2022-11-02T04:59:16.200Z,30.00
2022-11-02T05:01:49.980Z,30.20
2022-11-02T05:04:24.353Z,30.20
2022-11-02T05:07:00.295Z,30.20
2022-11-02T05:09:27.372Z,30.20
2022-11-02T05:11:58.998Z,30.30
2022-11-02T05:14:30.780Z,30.20
2022-11-02T05:17:01.728Z,30.30
2022-11-02T05:19:32.521Z,30.20
2022-11-02T05:22:03.393Z,30.20
2022-11-02T05:24:34.177Z,30.10
2022-11-02T05:27:05.099Z,30.20
2022-11-02T05:29:35.896Z,30.20
2022-11-02T05:32:07.480Z,30.20
2022-11-02T05:34:38.330Z,30.30
2022-11-02T05:37:09.154Z,30.30
2022-11-02T05:39:39.941Z,30.30
2022-11-02T05:42:10.751Z,30.40
2022-11-02T05:44:41.760Z,30.40
2022-11-02T05:47:12.694Z,30.40
2022-11-02T05:49:43.497Z,30.50
2022-11-02T05:52:14.336Z,30.50
2022-11-02T05:54:46.492Z,30.50
2022-11-02T05:57:18.348Z,30.50
2022-11-02T05:59:49.571Z,30.50
2022-11-02T06:02:24.728Z,30.50
2022-11-02T06:04:52.771Z,30.50
2022-11-02T06:07:24.317Z,30.50
2022-11-02T06:09:55.244Z,30.60
2022-11-02T06:12:26.131Z,30.60
2022-11-02T06:14:57.030Z,30.60
2022-11-02T06:17:27.838Z,30.70
2022-11-02T06:19:58.678Z,30.80
2022-11-02T06:22:29.468Z,30.80
2022-11-02T06:25:00.247Z,30.90
2022-11-02T06:27:31.052Z,30.90
2022-11-02T06:30:01.921Z,30.90
2022-11-02T06:32:32.735Z,30.80
2022-11-02T06:35:03.710Z,30.80
2022-11-02T06:37:36.330Z,30.80
2022-11-02T06:40:07.782Z,30.70
2022-11-02T06:42:44.814Z,30.70
2022-11-02T06:45:11.854Z,30.70
2022-11-02T06:47:44.861Z,30.70
2022-11-02T06:50:15.180Z,30.70
2022-11-02T06:52:47.374Z,30.80
2022-11-02T06:55:21.252Z,30.80
2022-11-02T06:57:52.064Z,30.90
2022-11-02T07:00:24.517Z,30.80
2022-11-02T07:03:06.664Z,30.80
2022-11-02T07:05:40.674Z,30.80
2022-11-02T07:08:11.569Z,30.90
2022-11-02T07:10:47.722Z,30.90
2022-11-02T07:13:18.909Z,30.80
2022-11-02T07:15:49.787Z,30.80
2022-11-02T07:18:20.602Z,30.80
2022-11-02T07:20:55.450Z,30.80
2022-11-02T07:23:32.771Z,30.80
2022-11-02T07:26:05.703Z,30.80
2022-11-02T07:28:41.654Z,30.80
2022-11-02T07:31:11.822Z,30.80
2022-11-02T07:33:42.722Z,30.70
2022-11-02T07:36:13.671Z,30.70
2022-11-02T07:38:46.581Z,30.60
2022-11-02T07:41:20.943Z,30.60
2022-11-02T07:43:53.092Z,30.60
2022-11-02T07:46:26.424Z,30.60
2022-11-02T07:48:57.550Z,30.50
2022-11-02T07:51:29.723Z,30.60
2022-11-02T07:54:01.816Z,30.60
2022-11-02T07:56:32.634Z,30.60
2022-11-02T07:59:03.746Z,30.60
2022-11-02T08:01:34.637Z,30.60
2022-11-02T08:04:05.599Z,30.60
2022-11-02T08:06:37.646Z,30.50
2022-11-02T08:09:08.465Z,30.50
2022-11-02T08:11:39.279Z,30.50
2022-11-02T08:14:10.527Z,30.50
2022-11-02T08:16:41.350Z,30.60
2022-11-02T08:19:13.615Z,30.50
2022-11-02T08:21:44.415Z,30.60
2022-11-02T08:24:17.738Z,30.50
2022-11-02T08:26:53.912Z,30.50
2022-11-02T08:29:27.130Z,30.50
2022-11-02T08:31:58.482Z,30.50
2022-11-02T08:34:30.888Z,30.50
2022-11-02T08:37:02.778Z,30.40
2022-11-02T08:39:34.913Z,30.40
2022-11-02T08:42:08.784Z,30.40
2022-11-02T08:44:42.655Z,30.30
2022-11-02T08:47:14.973Z,30.30
2022-11-02T08:49:45.363Z,30.40
2022-11-02T08:52:16.171Z,30.40
2022-11-02T08:54:46.988Z,30.40
2022-11-02T08:57:17.837Z,30.30
2022-11-02T08:59:48.647Z,30.30
2022-11-02T09:02:19.627Z,30.30
2022-11-02T09:04:50.445Z,30.30
2022-11-02T09:07:24.119Z,30.30
2022-11-02T09:09:54.896Z,30.30
2022-11-02T09:12:25.731Z,30.30
2022-11-02T09:14:56.529Z,30.20
2022-11-02T09:17:27.368Z,30.20
2022-11-02T09:19:58.174Z,30.10
2022-11-02T09:22:29.008Z,30.10
2022-11-02T09:24:59.989Z,30.10
2022-11-02T09:27:30.817Z,30.10
2022-11-02T09:30:01.660Z,30.00
2022-11-02T09:32:36.398Z,30.00
2022-11-02T09:35:11.121Z,29.90
2022-11-02T09:37:43.232Z,29.90
2022-11-02T09:40:16.002Z,29.90
2022-11-02T09:42:49.340Z,29.80
2022-11-02T09:45:22.384Z,29.80
2022-11-02T09:48:22.032Z,29.80
2022-11-02T09:50:39.845Z,29.80
2022-11-02T09:53:12.815Z,29.70
2022-11-02T09:55:46.102Z,29.70
2022-11-02T09:58:19.461Z,29.70
2022-11-02T10:00:53.669Z,29.60
2022-11-02T10:03:39.437Z,29.60
2022-11-02T10:06:16.746Z,29.50
2022-11-02T10:09:01.826Z,29.50
2022-11-02T10:11:51.683Z,29.50
2022-11-02T10:14:25.011Z,29.50
2022-11-02T10:17:04.131Z,29.50
2022-11-02T10:19:37.800Z,29.40
2022-11-02T10:22:11.013Z,29.40
2022-11-02T10:24:49.081Z,29.40
2022-11-02T10:27:31.048Z,29.40
2022-11-02T10:30:19.591Z,29.40
2022-11-02T10:32:58.679Z,29.40
2022-11-02T10:35:51.492Z,29.40
2022-11-02T10:38:40.887Z,29.30
2022-11-02T10:41:38.555Z,29.30
2022-11-02T10:44:36.110Z,29.30
2022-11-02T10:47:09.475Z,29.30
2022-11-02T10:50:37.043Z,29.20
2022-11-02T10:53:35.409Z,29.20
2022-11-02T10:56:04.870Z,29.20
2022-11-02T10:58:40.917Z,29.10
2022-11-02T11:01:21.628Z,29.00
2022-11-02T11:04:00.692Z,29.00
2022-11-02T11:06:40.236Z,29.00
2022-11-02T11:09:22.229Z,29.00
2022-11-02T11:11:58.544Z,29.00
2022-11-02T11:19:42.652Z,29.00
2022-11-02T11:22:25.978Z,28.90
2022-11-02T11:25:06.569Z,28.90
2022-11-02T11:27:41.705Z,28.90
2022-11-02T11:30:20.628Z,28.90
2022-11-02T11:32:54.748Z,28.80
2022-11-02T11:35:28.227Z,28.80
2022-11-02T11:38:03.245Z,28.70
2022-11-02T11:40:37.060Z,28.70
2022-11-02T11:43:12.595Z,28.70
2022-11-02T11:46:06.490Z,28.70
2022-11-02T11:48:44.242Z,28.60
2022-11-02T11:51:36.520Z,28.60
2022-11-02T11:54:23.823Z,28.60
2022-11-02T11:57:00.421Z,28.60
2022-11-02T11:59:34.600Z,28.60
2022-11-02T12:02:06.880Z,28.50
2022-11-02T12:04:40.008Z,28.50
2022-11-02T12:07:25.130Z,28.40
2022-11-02T12:10:01.505Z,28.40
2022-11-02T12:12:43.747Z,28.40
2022-11-02T12:15:37.726Z,28.40
2022-11-02T12:18:20.396Z,28.40
2022-11-02T12:21:00.385Z,28.30
2022-11-02T12:23:59.235Z,28.30
2022-11-02T12:26:44.134Z,28.20
2022-11-02T12:29:40.020Z,28.20
2022-11-02T12:32:38.284Z,28.10
2022-11-02T12:35:44.780Z,28.10
2022-11-02T12:38:21.083Z,28.10
2022-11-02T12:41:16.441Z,28.00
2022-11-02T12:44:20.199Z,28.00
2022-11-02T12:53:35.057Z,27.90
2022-11-02T12:53:58.589Z,27.80
2022-11-02T12:56:58.163Z,27.70
2022-11-02T13:03:15.028Z,27.60
2022-11-02T13:05:51.987Z,27.60
2022-11-02T13:08:27.570Z,27.50
2022-11-02T13:11:01.949Z,27.50
2022-11-02T13:13:40.707Z,27.50
2022-11-02T13:16:15.932Z,27.50
2022-11-02T13:19:01.132Z,27.50
2022-11-02T13:21:49.331Z,27.50
2022-11-02T13:24:30.658Z,27.50
2022-11-02T13:27:14.332Z,27.50
2022-11-02T13:29:39.277Z,27.40
2022-11-02T13:32:33.626Z,27.40
2022-11-02T13:35:07.349Z,27.40
2022-11-02T13:37:41.996Z,27.40
2022-11-02T13:40:25.071Z,27.40
2022-11-02T13:43:27.239Z,27.30
2022-11-02T13:46:17.277Z,27.20
2022-11-02T13:49:00.592Z,27.20
2022-11-02T13:51:44.392Z,27.10
2022-11-02T13:54:19.978Z,27.10
2022-11-02T13:57:13.498Z,27.00
2022-11-02T13:59:50.056Z,26.90
2022-11-02T14:02:23.380Z,26.90
2022-11-02T14:05:17.344Z,26.90
2022-11-02T14:07:55.018Z,26.80
2022-11-02T14:10:26.464Z,26.90
2022-11-02T14:13:00.982Z,26.90
2022-11-02T14:15:39.457Z,26.80
2022-11-02T14:18:15.946Z,26.80
2022-11-02T14:20:56.567Z,26.80
2022-11-02T14:23:35.108Z,26.70
2022-11-02T14:26:11.327Z,26.70
2022-11-02T14:28:48.975Z,26.70
2022-11-02T14:31:23.017Z,26.70
2022-11-02T14:34:16.395Z,26.70
2022-11-02T14:37:16.274Z,26.60
2022-11-02T14:40:01.897Z,26.60
2022-11-02T14:42:35.474Z,26.60
2022-11-02T14:45:36.386Z,26.60
2022-11-02T14:48:11.905Z,26.70
2022-11-02T14:50:45.248Z,26.70
2022-11-02T14:53:26.973Z,26.80
2022-11-02T14:56:01.693Z,26.90
2022-11-02T14:58:44.154Z,26.90
2022-11-02T15:01:18.528Z,26.90
2022-11-02T15:03:52.644Z,26.90
2022-11-02T15:06:27.816Z,26.90
2022-11-02T15:09:03.237Z,26.80
2022-11-02T15:12:05.709Z,26.80
2022-11-02T15:14:43.879Z,26.70
2022-11-02T15:17:27.691Z,26.70
2022-11-02T15:20:20.954Z,26.70
2022-11-02T15:23:01.730Z,26.70
2022-11-02T15:25:39.079Z,26.60
2022-11-02T15:28:16.401Z,26.60
2022-11-02T15:30:59.505Z,26.60
2022-11-02T15:33:42.589Z,26.50
2022-11-02T15:36:32.297Z,26.50
2022-11-02T15:39:05.880Z,26.50
2022-11-02T15:41:45.919Z,26.40
2022-11-02T15:44:28.908Z,26.40
2022-11-02T15:47:16.512Z,26.30
2022-11-02T15:50:12.298Z,26.30
2022-11-02T15:53:16.911Z,26.30
2022-11-02T15:55:41.235Z,26.20
2022-11-02T15:58:29.564Z,26.20
2022-11-02T16:01:21.014Z,26.20
2022-11-02T16:03:58.435Z,26.10
2022-11-02T16:06:48.100Z,25.80
2022-11-02T16:09:40.451Z,26.10
2022-11-02T16:12:20.227Z,26.10
2022-11-02T16:15:02.382Z,26.00
2022-11-02T16:17:34.517Z,26.00
2022-11-02T16:20:26.044Z,26.10
2022-11-02T16:23:10.157Z,26.00
2022-11-02T16:25:46.515Z,26.00
2022-11-02T16:28:25.529Z,26.00
2022-11-02T16:31:18.620Z,26.00
2022-11-02T16:33:48.685Z,25.90
2022-11-02T16:36:22.390Z,25.90
2022-11-02T16:39:09.449Z,25.90
2022-11-02T16:41:40.646Z,25.90
2022-11-02T16:44:14.133Z,25.90
2022-11-02T16:47:02.615Z,25.90
2022-11-02T16:49:33.430Z,25.90
2022-11-02T16:52:21.756Z,25.90
2022-11-02T16:54:54.263Z,25.90
2022-11-02T16:57:27.498Z,25.90
2022-11-02T17:00:03.870Z,25.80
2022-11-02T17:02:46.228Z,25.80
2022-11-02T17:05:28.171Z,25.80
2022-11-02T17:08:06.279Z,25.80
2022-11-02T17:10:38.587Z,25.80
2022-11-02T17:13:13.066Z,25.80
2022-11-02T17:15:55.698Z,25.80
2022-11-02T17:18:31.308Z,25.80
2022-11-02T17:21:21.227Z,25.70
2022-11-02T17:23:58.469Z,25.70
2022-11-02T17:26:49.533Z,25.70
2022-11-02T17:29:31.534Z,25.70
2022-11-02T17:32:02.578Z,25.60
2022-11-02T17:34:33.833Z,25.60
2022-11-02T17:37:12.593Z,25.70
2022-11-02T17:39:45.192Z,25.70
2022-11-02T17:42:34.362Z,25.70
2022-11-02T17:45:40.616Z,25.60
2022-11-02T17:48:13.012Z,25.70
2022-11-02T17:50:44.897Z,25.70
2022-11-02T17:53:16.147Z,25.60
2022-11-02T17:55:47.157Z,25.60
2022-11-02T17:58:18.241Z,25.60
2022-11-02T18:00:54.337Z,25.60
2022-11-02T18:03:31.218Z,25.60
2022-11-02T18:06:01.336Z,25.60
2022-11-02T18:08:32.459Z,25.60
2022-11-02T18:11:10.877Z,25.60
2022-11-02T18:13:41.741Z,25.50
2022-11-02T18:16:28.910Z,25.50
2022-11-02T18:18:50.825Z,25.50
2022-11-02T18:21:21.653Z,25.50
2022-11-02T18:23:52.469Z,25.50
2022-11-02T18:28:53.383Z,25.40
2022-11-02T18:31:24.209Z,25.30
2022-11-02T18:33:55.011Z,25.30
2022-11-02T18:39:28.266Z,25.00
2022-11-02T18:41:57.951Z,24.90
2022-11-02T18:47:00.428Z,24.70
2022-11-02T18:49:31.225Z,24.60
2022-11-02T18:52:21.440Z,24.60
2022-11-02T18:54:47.450Z,24.60
2022-11-02T18:57:18.642Z,24.60
2022-11-02T18:59:49.446Z,24.60
2022-11-02T19:02:20.273Z,24.50
2022-11-02T19:04:51.104Z,24.40
2022-11-02T19:07:39.311Z,24.40
2022-11-02T19:10:11.051Z,24.30
2022-11-02T19:12:41.951Z,24.30
2022-11-02T19:15:16.924Z,24.20
2022-11-02T19:17:47.999Z,24.20
2022-11-02T19:20:19.072Z,24.10
2022-11-02T19:22:54.526Z,24.00
2022-11-02T19:25:23.265Z,24.00
2022-11-02T19:27:54.092Z,24.00
2022-11-02T19:30:24.919Z,23.90
2022-11-02T19:32:55.698Z,24.00
2022-11-02T19:35:26.481Z,23.90
2022-11-02T19:38:00.364Z,23.90
2022-11-02T19:40:31.210Z,23.80
2022-11-02T19:43:02.088Z,23.90
2022-11-02T19:45:32.966Z,23.80
2022-11-02T19:48:04.994Z,23.80
2022-11-02T19:50:36.162Z,23.70
2022-11-02T19:53:07.029Z,23.60
2022-11-02T19:55:37.841Z,23.50
2022-11-02T19:58:08.660Z,23.50
2022-11-02T20:00:41.941Z,23.30
2022-11-02T20:03:12.812Z,23.70
2022-11-02T20:05:43.644Z,23.30
2022-11-02T20:08:58.041Z,23.60
2022-11-02T20:11:30.180Z,23.30
2022-11-02T20:14:02.296Z,23.50
2022-11-02T20:21:39.885Z,23.10
2022-11-02T20:24:08.785Z,23.40
2022-11-02T20:26:41.899Z,23.50
2022-11-02T20:29:15.517Z,23.30
2022-11-02T20:31:45.586Z,23.30
2022-11-02T20:34:16.904Z,23.30
2022-11-02T20:36:57.931Z,23.60
2022-11-02T20:39:28.763Z,23.30
2022-11-02T20:41:59.672Z,23.50
2022-11-02T20:44:30.557Z,23.30
2022-11-02T20:47:01.382Z,23.30
2022-11-02T20:52:04.372Z,23.40
2022-11-02T20:54:35.135Z,23.50
2022-11-02T20:57:05.948Z,23.10
2022-11-02T20:59:36.783Z,23.10
2022-11-02T21:20:33.024Z,22.80
2022-11-02T21:22:47.572Z,22.80
2022-11-02T21:25:18.432Z,22.80
2022-11-02T21:27:53.478Z,22.70
2022-11-02T21:30:24.307Z,22.70
2022-11-02T21:32:56.013Z,22.80
2022-11-02T21:35:30.273Z,22.70
2022-11-02T21:38:05.272Z,22.70
2022-11-02T21:40:33.781Z,22.80
2022-11-02T21:43:04.893Z,22.70
2022-11-02T21:45:38.083Z,22.60
2022-11-02T21:48:08.322Z,22.60
2022-11-02T21:50:39.064Z,22.60
2022-11-02T21:53:09.882Z,22.50
2022-11-02T21:55:40.668Z,22.50
2022-11-02T21:58:12.040Z,22.60
2022-11-02T22:01:00.349Z,22.70
2022-11-02T22:03:31.199Z,22.80
2022-11-02T22:06:02.117Z,22.90
2022-11-02T22:08:42.000Z,22.90
2022-11-02T22:11:18.214Z,22.90
2022-11-02T22:13:50.148Z,22.90
2022-11-02T22:16:24.745Z,23.00
2022-11-02T22:18:57.938Z,23.00
2022-11-02T22:21:30.320Z,23.10
2022-11-02T22:24:01.916Z,23.10
2022-11-02T22:26:33.501Z,23.10
2022-11-02T22:29:05.170Z,23.10
2022-11-02T22:31:43.153Z,23.10
2022-11-02T22:34:15.891Z,23.10
2022-11-02T22:36:48.648Z,23.10
2022-11-02T22:39:19.737Z,23.10
2022-11-02T22:41:51.053Z,23.10
2022-11-02T22:44:23.591Z,23.10
2022-11-02T22:46:54.603Z,23.10
2022-11-02T22:49:25.382Z,23.00
2022-11-02T22:51:56.232Z,23.00
2022-11-02T22:54:27.007Z,22.90
2022-11-02T22:56:58.614Z,22.90
2022-11-02T22:59:29.407Z,22.90
2022-11-02T23:02:00.465Z,22.90
2022-11-02T23:04:31.253Z,22.80
2022-11-02T23:07:02.119Z,22.80
2022-11-02T23:09:33.159Z,22.80
2022-11-02T23:12:03.958Z,22.80
2022-11-02T23:14:34.766Z,22.80
2022-11-02T23:17:06.122Z,22.80
2022-11-02T23:19:38.322Z,22.80
2022-11-02T23:22:28.520Z,22.80
2022-11-02T23:25:13.070Z,22.90
2022-11-02T23:28:06.215Z,22.90
2022-11-02T23:30:56.450Z,22.90
2022-11-02T23:33:32.354Z,22.90
2022-11-02T23:36:13.931Z,22.90
2022-11-02T23:39:03.397Z,22.90
2022-11-02T23:41:35.409Z,22.90
2022-11-02T23:44:19.487Z,23.00
2022-11-02T23:46:51.525Z,23.00
2022-11-02T23:49:22.301Z,23.00
2022-11-02T23:52:10.563Z,23.00
2022-11-02T23:54:58.965Z,23.00
2022-11-02T23:57:31.144Z,23.00
